Date,TemperatureHighF,TemperatureAvgF,TemperatureLowF,DewpointHighF,DewpointAvgF,DewpointLowF,HumidityHigh,HumidityAvg,HumidityLow,PressureMaxIn,PressureMinIn,WindSpeedMaxMPH,WindSpeedAvgMPH,GustSpeedMaxMPH,PrecipitationSumIn
2013-1-1,33,31,24,32,28,20,94,91,86,30.11,29.99,10,0,10,0.01
2013-1-2,29,21,13,20,15,9,92,79,61,30.29,30.08,11,0,11,0.00
2013-1-3,35,21,4,24,15,1,98,78,62,30.29,30.18,16,1,16,0.00
2013-1-4,35,30,28,25,23,20,82,74,63,30.29,30.19,19,2,19,0.00
2013-1-5,38,30,25,28,24,19,89,78,62,30.42,30.17,11,1,11,0.00
2013-1-6,40,35,26,32,30,23,93,83,70,30.24,30.02,13,0,13,0.00
2013-1-7,37,30,16,31,25,13,87,82,69,30.48,30.24,8,0,8,0.00
2013-1-8,47,26,12,33,21,10,95,84,57,30.42,30.30,9,0,9,0.00
2013-1-9,47,32,19,43,30,18,97,92,80,30.53,30.27,13,0,13,0.04
2013-1-10,42,32,22,34,28,20,96,86,69,30.65,30.31,5,0,5,0.00
2013-1-11,50,38,34,50,36,30,98,93,86,30.31,29.98,6,0,6,0.12
2013-1-12,63,47,35,58,45,34,99,93,80,30.11,29.95,9,0,9,0.00
2013-1-13,69,56,42,60,51,41,100,87,68,29.95,29.86,17,1,17,0.15
2013-1-14,57,40,32,56,34,26,96,81,66,30.37,29.87,19,1,19,0.00
2013-1-15,34,30,24,31,25,21,95,83,76,30.42,30.10,7,0,7,0.16
2013-1-16,35,33,32,34,32,30,96,95,91,30.10,29.91,9,0,9,0.20
2013-1-17,35,33,31,32,30,28,94,90,85,30.21,30.04,10,0,10,0.00
2013-1-18,33,27,19,28,18,11,90,68,57,30.54,30.19,16,1,16,0.00
2013-1-19,54,44,31,28,23,16,63,45,31,30.30,29.85,19,2,20,0.00
2013-1-20,47,36,24,34,22,15,71,57,46,30.15,29.79,23,2,23,0.00
2013-1-21,29,23,14,19,15,3,79,70,59,30.13,29.94,18,2,19,0.00
2013-1-22,15,11,7,6,2,-1,80,67,54,30.35,30.11,17,1,17,0.00
2013-1-23,18,12,2,11,4,-2,88,71,52,30.39,30.13,11,0,11,0.00
2013-1-24,25,15,8,16,9,2,92,76,46,30.60,30.12,18,1,18,0.00
2013-1-25,21,16,10,17,12,6,87,83,73,30.59,30.08,10,0,10,0.20
2013-1-26,30,24,13,26,20,7,92,84,73,30.50,30.15,14,0,14,0.00
2013-1-27,33,21,2,24,15,-1,91,79,59,30.60,30.36,6,0,6,0.00
2013-1-28,50,41,30,49,39,23,100,93,75,30.38,30.04,13,1,13,0.44
2013-1-29,66,52,41,58,49,39,98,89,68,30.07,29.78,13,1,13,0.00
2013-1-30,67,52,41,59,50,39,99,94,73,29.80,29.23,18,1,18,0.94
2013-1-31,48,30,24,46,23,16,92,78,63,29.88,29.22,25,3,25,0.03
2013-2-1,24,16,8,21,10,4,89,76,65,30.40,29.85,16,1,16,0.00
2013-2-2,25,17,4,22,14,2,100,86,76,30.39,30.02,15,1,15,0.05
2013-2-3,29,24,18,26,21,15,93,88,80,30.08,29.86,13,0,13,0.01
2013-2-4,28,23,18,24,19,13,92,84,70,30.13,29.90,11,0,11,0.11
2013-2-5,33,30,26,32,28,24,99,93,89,29.97,29.85,6,0,6,0.04
2013-2-6,34,27,11,29,23,7,94,85,67,30.37,29.97,6,0,10,0.00
2013-2-7,46,28,9,33,22,6,94,80,58,30.35,30.00,7,0,7,0.00
2013-2-8,38,31,26,37,28,23,100,90,82,30.19,29.83,17,1,17,0.09
2013-2-9,38,28,16,23,19,12,88,70,50,30.42,30.19,12,1,12,0.00
2013-2-10,54,31,11,33,21,8,93,70,35,30.40,29.99,9,0,9,0.00
2013-2-11,63,46,36,50,36,28,97,70,36,29.99,29.67,25,2,25,0.01
2013-2-12,45,36,25,31,27,21,86,68,54,30.08,29.92,23,1,23,0.00
2013-2-13,40,30,21,34,26,18,95,87,69,29.95,29.71,5,0,5,0.10
2013-2-14,43,35,28,36,31,26,94,86,73,29.99,29.89,13,1,13,0.00
2013-2-15,39,34,29,35,31,26,93,87,76,30.08,29.92,11,0,11,0.07
2013-2-16,32,26,19,26,21,14,91,81,62,30.08,29.96,9,0,9,0.00
2013-2-17,25,20,14,20,15,7,87,81,66,30.31,29.96,18,1,18,0.01
2013-2-18,45,24,5,30,16,1,96,72,46,30.36,29.93,12,0,12,0.00
2013-2-19,44,36,25,40,31,18,93,82,60,29.97,29.69,22,2,22,0.10
2013-2-20,25,21,20,19,15,12,86,76,64,30.27,29.97,20,2,20,0.00
2013-2-21,27,22,19,21,17,14,87,79,68,30.40,30.24,12,1,12,0.00
2013-2-22,39,31,21,36,28,17,93,85,70,30.33,30.01,12,0,12,0.00
2013-2-23,46,36,28,40,33,25,94,88,74,30.02,29.87,7,0,7,0.00
2013-2-24,32,29,24,28,25,22,100,86,75,30.18,29.88,13,0,13,0.00
2013-2-25,47,32,20,31,24,17,93,74,48,30.26,30.07,9,0,9,0.00
2013-2-26,41,32,22,37,29,19,96,89,61,30.09,29.59,23,1,23,0.69
2013-2-27,44,39,34,41,37,32,97,93,80,29.69,29.57,18,1,18,0.12
2013-2-28,35,34,33,33,32,30,94,92,90,29.83,29.63,11,1,11,0.05
2013-3-1,33,31,27,31,27,23,93,88,82,30.00,29.83,11,1,11,0.00
2013-3-2,31,27,26,25,23,22,90,84,76,30.00,29.93,12,1,12,0.00
2013-3-3,28,26,24,24,21,20,91,82,71,30.05,29.96,7,1,10,0.00
2013-3-4,40,28,21,25,20,15,86,72,49,30.16,30.05,15,1,15,0.00
2013-3-5,50,33,16,30,21,13,93,65,30,30.13,29.69,16,0,16,0.02
2013-3-6,44,36,32,36,32,30,95,86,68,30.13,29.68,12,0,12,0.40
2013-3-7,41,35,32,34,31,29,91,85,66,30.31,30.12,12,1,12,0.02
2013-3-8,37,32,25,31,27,22,89,83,73,30.44,30.30,13,1,13,0.00
2013-3-9,58,36,20,38,27,18,95,74,38,30.44,30.20,6,0,6,0.00
2013-3-10,73,50,30,42,34,26,93,64,28,30.20,29.99,12,1,12,0.00
2013-3-11,65,54,43,49,40,35,85,61,35,30.00,29.67,16,1,17,0.05
2013-3-12,47,40,36,44,35,29,92,83,71,30.01,29.76,16,1,16,0.04
2013-3-13,39,32,28,33,27,22,91,82,61,30.17,29.93,22,1,22,0.09
2013-3-14,41,31,24,25,21,18,82,69,49,30.26,30.15,19,2,19,0.00
2013-3-15,51,37,20,38,29,17,92,73,55,30.17,29.83,18,1,18,0.00
2013-3-16,42,39,34,40,37,31,95,92,85,29.98,29.62,11,1,13,0.01
2013-3-17,39,33,30,31,27,24,91,77,62,30.21,29.98,8,0,8,0.00
2013-3-18,40,35,30,37,32,24,100,90,77,30.17,29.71,14,1,14,0.45
2013-3-19,46,38,30,39,28,20,94,66,46,29.99,29.75,26,3,26,0.01
2013-3-20,42,32,24,26,20,17,78,62,43,30.00,29.82,21,2,21,0.00
2013-3-21,30,25,19,22,16,11,85,69,52,29.96,29.88,16,1,16,0.00
2013-3-22,37,29,22,24,21,18,84,71,55,30.06,29.93,16,2,16,0.00
2013-3-23,49,32,17,29,22,14,94,69,40,30.08,30.01,14,1,15,0.00
2013-3-24,46,37,26,31,28,20,91,70,48,30.02,29.53,13,1,15,0.02
2013-3-25,39,34,32,36,33,30,96,93,89,29.76,29.45,10,0,10,0.58
2013-3-26,42,37,32,35,32,29,95,85,71,30.10,29.76,12,1,13,0.00
2013-3-27,45,37,32,35,30,27,94,76,53,30.18,30.08,19,1,19,0.02
2013-3-28,44,39,35,33,31,29,83,73,59,30.28,30.15,16,1,16,0.00
2013-3-29,55,43,32,37,30,26,96,65,35,30.28,30.17,12,1,12,0.00
2013-3-30,59,40,22,36,26,20,95,64,28,30.27,30.04,9,0,10,0.00
2013-3-31,50,42,32,48,38,27,96,87,76,30.04,29.74,10,0,10,0.04
2013-4-1,45,41,29,44,30,16,95,69,36,30.03,29.72,22,2,22,0.00
2013-4-2,42,32,23,22,19,16,84,62,38,30.22,30.03,19,1,19,0.00
2013-4-3,42,30,18,25,17,13,92,63,34,30.44,30.22,19,2,19,0.00
2013-4-4,56,36,15,30,20,11,89,58,23,30.43,30.00,10,0,10,0.00
2013-4-5,58,41,24,37,27,20,93,61,36,30.19,29.96,18,2,20,0.00
2013-4-6,62,41,21,30,23,17,91,54,18,30.31,30.03,12,1,12,0.00
2013-4-7,72,59,41,50,41,30,77,53,41,30.03,29.86,21,2,21,0.00
2013-4-8,75,60,42,54,47,38,94,66,41,30.03,29.87,19,1,25,0.00
2013-4-9,82,68,50,60,54,45,92,64,44,30.08,29.88,13,1,13,0.00
2013-4-10,82,67,53,64,58,49,95,73,48,29.93,29.75,19,1,21,0.16
2013-4-11,76,64,50,63,57,48,98,81,59,29.86,29.56,12,0,14,0.00
2013-4-12,64,57,46,61,51,36,96,81,57,29.85,29.47,21,1,21,0.37
2013-4-13,57,46,34,40,36,30,89,69,48,30.03,29.84,19,1,19,0.00
2013-4-14,65,48,29,44,36,25,93,65,41,30.17,30.01,10,0,10,0.00
2013-4-15,69,58,49,52,48,42,85,70,51,30.09,29.97,13,1,14,0.00
2013-4-16,81,62,44,63,54,42,97,77,52,30.19,30.01,19,1,19,0.53
2013-4-17,69,59,52,59,54,50,96,86,69,30.23,30.08,6,0,7,0.00
2013-4-18,85,70,52,64,57,51,96,68,43,30.10,29.74,16,2,16,0.00
2013-4-19,71,61,45,62,52,35,88,73,61,29.83,29.45,21,2,21,0.14
2013-4-20,50,42,31,36,30,25,81,64,46,30.41,29.87,19,2,19,0.00
2013-4-21,58,40,24,34,28,21,93,64,31,30.62,30.41,12,1,12,0.00
2013-4-22,67,49,34,42,33,28,88,58,29,30.48,30.27,14,1,14,0.00
2013-4-23,74,53,31,47,39,28,94,62,31,30.28,29.96,9,0,9,0.00
2013-4-24,72,53,40,57,46,36,93,79,55,30.17,29.74,26,1,26,0.22
2013-4-25,61,46,31,40,35,28,94,69,37,30.36,30.17,15,1,15,0.00
2013-4-26,65,48,32,44,36,29,95,67,32,30.48,30.36,8,0,8,0.00
2013-4-27,78,54,30,48,38,28,95,62,24,30.40,30.15,12,1,12,0.00
2013-4-28,62,53,42,58,49,38,94,86,72,30.15,29.92,9,0,9,0.21
2013-4-29,65,57,48,60,54,45,96,90,77,30.02,29.93,12,0,12,0.11
2013-4-30,77,60,45,61,53,43,97,78,55,30.17,30.01,10,0,10,0.00
2013-5-1,80,62,44,60,49,41,97,67,36,30.29,30.16,13,1,13,0.00
2013-5-2,83,61,39,54,43,36,95,57,22,30.34,30.17,13,1,13,0.00
2013-5-3,79,60,39,52,44,36,94,59,32,30.23,30.13,17,1,17,0.00
2013-5-4,75,59,41,51,43,35,85,57,34,30.19,30.06,14,1,14,0.00
2013-5-5,78,59,38,48,38,28,95,54,18,30.13,29.99,16,1,16,0.00
2013-5-6,73,57,38,58,48,34,94,72,55,30.07,29.98,14,1,14,0.00
2013-5-7,65,59,55,60,56,52,95,89,79,30.01,29.92,15,0,15,0.19
2013-5-8,78,63,50,59,54,49,96,76,38,29.97,29.86,8,0,8,0.24
2013-5-9,82,64,51,62,55,48,95,75,36,29.97,29.88,13,0,13,0.00
2013-5-10,77,62,53,66,58,51,96,88,64,29.99,29.79,19,0,19,0.47
2013-5-11,61,57,47,60,55,44,97,93,82,29.83,29.75,10,0,10,0.15
2013-5-12,56,48,38,49,37,32,95,67,44,30.06,29.81,16,1,16,0.00
2013-5-13,58,43,29,37,31,26,93,65,38,30.19,30.06,15,1,15,0.00
2013-5-14,66,47,27,48,37,24,95,71,43,30.21,29.90,11,0,11,0.00
2013-5-15,88,67,46,68,57,41,96,74,46,29.90,29.69,16,1,16,0.00
2013-5-16,82,68,57,68,60,54,97,77,39,29.95,29.75,9,0,9,0.29
2013-5-17,86,68,53,68,59,51,96,77,40,30.08,29.94,11,0,11,0.00
2013-5-18,87,70,51,68,60,48,91,73,48,30.08,29.99,10,0,10,0.00
2013-5-19,80,68,55,68,62,52,96,82,65,30.07,29.93,7,0,7,0.02
2013-5-20,89,72,56,73,65,54,97,81,54,30.01,29.87,9,0,9,0.00
2013-5-21,89,72,59,74,66,57,98,84,55,29.93,29.79,11,0,11,0.05
2013-5-22,88,70,60,76,65,59,97,85,52,29.86,29.74,13,1,13,0.08
2013-5-23,79,65,52,68,62,50,98,91,61,29.88,29.74,13,1,13,0.72
2013-5-24,52,46,41,50,41,36,94,85,66,30.30,29.88,15,1,15,0.01
2013-5-25,67,48,30,47,38,28,95,70,39,30.34,30.23,15,1,15,0.00
2013-5-26,74,52,33,50,40,30,95,69,35,30.31,30.20,13,1,13,0.00
2013-5-27,63,51,35,54,46,32,96,81,66,30.27,30.10,5,0,5,0.01
2013-5-28,83,67,54,71,62,50,98,86,58,30.10,29.97,13,1,13,0.19
2013-5-29,88,72,60,72,64,58,97,77,48,30.07,29.99,12,1,12,0.00
2013-5-30,91,73,57,74,65,55,98,78,48,30.16,30.04,8,0,8,0.00
2013-5-31,90,75,59,74,66,57,98,75,48,30.09,29.94,12,0,12,0.00
2013-6-1,88,78,66,74,69,63,95,75,55,29.97,29.77,16,1,16,0.00
2013-6-2,82,72,65,70,66,62,97,83,60,29.84,29.75,14,1,14,0.23
2013-6-3,68,63,49,63,57,45,92,83,69,30.04,29.82,9,0,9,0.00
2013-6-4,78,58,38,57,49,36,97,74,41,30.17,30.04,10,0,10,0.00
2013-6-5,86,65,45,69,57,43,96,77,53,30.13,29.90,6,0,6,0.00
2013-6-6,70,66,62,69,64,59,97,95,87,29.92,29.74,7,0,7,1.08
2013-6-7,66,63,59,64,61,56,98,95,89,29.83,29.72,8,0,10,0.00
2013-6-8,78,63,56,64,57,54,94,83,55,30.09,29.83,7,0,7,0.01
2013-6-9,87,70,53,70,62,51,97,79,51,30.15,29.98,12,0,12,0.00
2013-6-10,76,69,64,74,67,62,98,93,83,29.99,29.75,11,0,11,0.60
2013-6-11,80,69,63,71,65,62,98,90,65,29.86,29.76,11,0,11,0.12
2013-6-12,86,74,62,75,68,60,98,84,62,29.88,29.75,13,0,13,0.00
2013-6-13,71,66,59,68,64,56,98,93,83,29.77,29.46,15,1,15,1.86
2013-6-14,76,63,54,65,58,52,97,85,55,30.05,29.76,11,0,11,0.00
2013-6-15,82,66,47,62,56,45,99,74,37,30.12,29.98,9,0,9,0.00
2013-6-16,73,67,62,70,64,60,97,92,84,30.00,29.89,13,0,13,0.20
2013-6-17,85,73,64,71,66,62,98,81,51,29.95,29.85,9,0,9,0.00
2013-6-18,78,67,61,71,64,60,97,91,76,29.93,29.81,7,0,7,0.04
2013-6-19,81,66,53,62,57,50,96,74,40,30.13,29.92,10,0,10,0.00
2013-6-20,87,66,47,67,56,45,98,74,40,30.21,30.13,7,0,7,0.00
2013-6-21,90,70,52,69,60,50,98,74,41,30.23,30.13,6,0,6,0.00
2013-6-22,88,73,56,75,66,54,98,80,57,30.18,30.03,9,0,9,0.00
2013-6-23,90,75,62,76,68,60,98,81,55,30.12,30.01,11,0,11,0.00
2013-6-24,92,77,62,75,68,60,98,77,50,30.11,29.96,7,0,11,0.00
2013-6-25,91,76,65,76,68,63,97,81,57,30.02,29.84,19,1,19,0.22
2013-6-26,85,74,66,75,70,65,99,88,68,29.94,29.78,11,0,11,1.67
2013-6-27,78,71,66,74,69,65,98,95,82,29.73,29.61,10,0,10,0.77
2013-6-28,78,68,62,74,67,60,99,94,83,29.63,29.46,18,0,18,0.59
2013-6-29,80,70,58,71,64,56,96,84,65,29.67,29.52,9,0,9,0.00
2013-6-30,85,70,60,74,66,58,99,87,62,29.82,29.66,12,0,12,0.32
2013-7-1,72,67,64,71,66,63,99,96,87,29.92,29.78,3,0,3,0.25
2013-7-2,86,75,66,76,71,65,99,88,63,30.01,29.90,10,0,10,0.14
2013-7-3,88,77,65,76,71,64,98,83,60,30.14,30.06,7,0,9,0.00
2013-7-4,88,77,69,76,71,68,98,84,60,30.18,30.07,9,0,9,0.06
2013-7-5,76,69,67,71,67,65,96,94,86,30.13,30.08,0,0,0,0.09
2013-7-6,90,77,66,78,72,65,99,85,60,30.14,29.98,7,0,7,0.10
2013-7-7,76,72,67,73,70,65,97,93,83,30.07,29.98,7,0,7,0.09
2013-7-8,86,74,63,76,69,62,98,87,63,30.11,30.01,10,0,10,0.00
2013-7-9,84,74,68,78,72,67,99,93,81,30.09,29.93,9,0,10,1.25
2013-7-10,83,72,66,83,71,65,100,96,79,29.98,29.78,19,0,19,2.02
2013-7-11,78,69,61,70,65,59,99,88,65,29.97,29.86,8,0,8,0.00
2013-7-12,76,66,56,69,64,54,98,92,75,30.09,29.96,7,0,8,0.03
2013-7-13,85,72,60,75,68,58,99,87,64,30.20,30.07,7,0,7,0.00
2013-7-14,91,77,65,77,71,64,99,82,58,30.26,30.19,10,0,10,0.00
2013-7-15,92,78,65,79,72,64,99,83,58,30.30,30.19,6,0,6,0.00
2013-7-16,91,76,68,82,73,68,99,91,69,30.28,30.20,13,0,13,0.02
2013-7-17,88,77,68,82,74,67,100,93,76,30.27,30.12,6,0,6,0.00
2013-7-18,93,80,68,82,75,68,99,87,63,30.14,29.98,7,0,7,0.00
2013-7-19,92,78,70,81,74,70,99,90,66,30.00,29.82,12,0,12,0.14
2013-7-20,79,73,69,77,71,67,99,94,82,29.89,29.81,11,0,11,0.03
2013-7-21,85,74,66,77,70,66,99,90,72,29.94,29.86,9,0,9,0.01
2013-7-22,79,72,64,77,70,63,99,95,88,29.92,29.73,6,0,6,0.07
2013-7-23,86,72,64,75,69,63,99,90,63,29.76,29.66,13,0,22,0.18
2013-7-24,70,64,60,65,61,59,97,92,70,29.91,29.72,9,0,10,0.00
2013-7-25,80,64,49,63,56,48,98,79,46,30.07,29.97,6,0,8,0.00
2013-7-26,83,66,50,67,59,49,99,81,49,30.09,29.98,3,0,6,0.00
2013-7-27,73,65,57,72,64,55,99,95,89,29.98,29.82,6,0,6,0.51
2013-7-28,78,68,56,67,63,54,99,86,57,30.02,29.83,7,0,11,0.12
2013-7-29,75,62,50,64,56,48,98,83,62,30.19,30.02,12,0,12,0.00
2013-7-30,81,65,52,68,59,51,98,83,54,30.23,30.13,9,0,9,0.00
2013-7-31,79,65,56,71,62,54,99,92,68,30.14,29.94,5,0,5,0.03
2013-8-1,82,70,62,71,66,60,99,88,63,29.94,29.83,9,0,11,0.00
2013-8-2,79,67,56,68,62,55,99,84,53,29.97,29.88,5,0,12,0.00
2013-8-3,76,67,58,72,65,56,99,93,81,29.98,29.91,7,0,7,0.22
2013-8-4,76,62,52,65,57,51,99,86,57,30.08,29.97,10,0,10,0.00
2013-8-5,77,62,50,64,57,48,99,84,54,30.12,30.00,5,0,6,0.00
2013-8-6,84,67,53,67,60,51,98,81,50,30.02,29.94,9,0,9,0.00
2013-8-7,85,69,58,76,66,57,100,91,70,29.98,29.88,12,0,12,0.57
2013-8-8,86,73,64,79,71,63,99,92,74,29.95,29.87,9,0,9,0.01
2013-8-9,78,73,67,76,71,65,99,94,88,29.99,29.85,9,0,9,0.05
2013-8-10,83,70,67,73,67,65,94,89,65,30.06,29.98,5,0,5,0.00
2013-8-11,85,73,60,74,69,58,98,88,65,30.09,29.98,5,0,6,0.01
2013-8-12,85,75,65,73,70,63,99,86,61,30.03,29.84,1,0,1,4.07
2013-8-13,81,71,58,73,65,52,98,83,63,29.95,29.76,13,0,13,29.97
2013-8-14,68,58,48,60,53,47,97,85,69,30.15,29.95,12,0,12,0.00
2013-8-15,78,60,44,63,53,43,99,80,47,30.20,30.09,7,0,7,0.00
2013-8-16,81,63,49,66,56,47,98,80,47,30.16,30.10,6,0,6,0.00
2013-8-17,82,65,51,66,58,49,98,82,50,30.24,30.16,9,0,9,0.00
2013-8-18,74,66,59,68,63,57,98,93,82,30.20,30.12,5,0,5,0.00
2013-8-19,83,70,60,73,66,58,99,90,64,30.14,30.03,9,0,9,0.00
2013-8-20,84,64,53,71,60,52,99,88,54,30.18,30.08,5,0,5,0.00
2013-8-21,88,70,54,75,64,53,99,83,53,30.18,30.02,5,0,5,0.21
2013-8-22,87,74,64,75,69,63,98,87,61,30.08,29.94,8,0,8,29.88
2013-8-23,84,72,66,72,67,65,98,87,57,30.05,29.95,7,0,7,29.95
2013-8-24,86,72,51,70,63,50,98,75,48,30.28,30.22,6,0,6,17.35
2013-8-25,86,68,52,69,60,50,99,80,49,30.35,30.21,10,0,10,0.08
2013-8-26,89,71,55,72,63,54,98,80,52,30.24,30.00,12,0,12,1.49
2013-8-27,83,74,68,74,70,66,98,90,71,30.01,29.90,10,0,10,0.02
2013-8-28,83,74,69,79,72,68,99,96,80,29.92,29.77,10,0,10,0.80
2013-8-29,88,75,67,76,71,65,99,88,60,30.00,29.87,5,0,5,0.00
2013-8-30,89,74,61,77,69,60,99,85,61,29.98,29.80,9,0,9,0.00
2013-8-31,89,75,67,76,70,65,99,87,61,29.83,29.73,11,0,11,0.00
2013-9-1,84,73,67,76,70,66,98,92,72,29.81,29.73,5,0,5,0.00
2013-9-2,86,73,65,76,69,63,99,88,65,29.82,29.70,11,0,11,0.00
2013-9-3,77,66,54,65,60,52,98,83,56,30.03,29.80,11,0,11,0.01
2013-9-4,82,64,48,65,56,46,98,79,47,30.12,30.02,7,0,7,0.00
2013-9-5,81,64,52,66,57,48,98,80,47,30.20,30.05,13,0,13,0.00
2013-9-6,80,58,41,57,48,39,98,74,33,30.27,30.12,6,0,6,0.00
2013-9-7,84,60,42,63,52,40,98,78,39,30.13,29.94,7,0,7,0.00
2013-9-8,82,69,60,72,64,58,97,84,64,30.03,29.90,10,0,10,0.00
2013-9-9,85,69,53,76,65,52,98,88,67,30.07,29.97,6,0,6,0.00
2013-9-10,93,78,65,80,72,64,97,84,63,30.10,30.02,12,0,12,0.00
2013-9-11,91,75,68,78,71,66,99,88,60,30.11,29.97,14,0,14,0.01
2013-9-12,77,70,61,74,68,59,98,93,83,29.98,29.77,14,0,14,0.18
2013-9-13,70,59,51,61,55,47,98,87,66,30.02,29.78,24,0,24,0.08
2013-9-14,72,56,45,53,48,42,94,78,45,30.17,30.01,7,0,7,0.01
2013-9-15,73,56,39,60,50,37,98,82,58,30.19,30.06,9,0,9,0.00
2013-9-16,73,64,52,62,56,49,88,74,60,30.29,30.15,11,0,11,0.07
2013-9-17,75,56,41,59,49,39,97,81,48,30.39,30.25,7,0,7,0.02
2013-9-18,78,57,40,61,51,38,98,82,47,30.26,30.11,7,0,9,0.02
2013-9-19,81,66,58,67,61,55,97,85,57,30.13,30.01,6,0,6,0.01
2013-9-20,82,68,55,73,64,53,98,89,73,30.03,29.81,7,0,7,0.00
2013-9-21,68,64,59,67,63,58,97,96,93,29.81,29.65,8,0,8,0.93
2013-9-22,67,57,50,56,51,48,98,83,58,30.01,29.80,11,0,11,0.00
2013-9-23,61,52,40,50,47,38,95,83,63,30.15,30.01,6,0,6,0.01
2013-9-24,75,53,36,56,46,34,98,79,46,30.14,29.97,5,0,5,0.00
2013-9-25,80,57,41,61,50,39,98,82,48,29.99,29.87,6,0,6,0.00
2013-9-26,82,59,43,61,51,41,98,78,36,30.07,29.93,1,0,1,0.00
2013-9-27,81,58,41,61,50,39,98,80,43,30.19,30.07,1,0,1,0.00
2013-9-28,78,58,42,62,52,41,98,80,51,30.25,30.14,7,0,7,0.00
2013-9-29,78,57,45,65,52,43,98,87,56,30.15,29.99,5,0,5,0.00
2013-9-30,74,60,50,66,57,48,98,90,73,30.04,29.97,1,0,1,0.00
2013-10-1,81,67,54,66,60,52,98,81,56,30.08,29.98,9,0,9,0.00
2013-10-2,83,65,51,70,60,50,98,85,59,30.09,30.01,9,0,9,0.00
2013-10-3,82,66,55,71,62,53,98,88,67,30.08,29.99,9,0,9,0.09
2013-10-4,83,69,60,72,65,59,98,87,62,30.09,30.00,7,0,7,0.01
2013-10-5,86,70,60,73,65,59,98,87,60,30.07,29.96,13,0,13,0.40
2013-10-6,87,72,61,73,66,60,98,83,51,29.96,29.74,8,0,8,0.01
2013-10-7,69,56,44,63,50,42,95,81,62,30.12,29.67,12,0,12,0.05
2013-10-8,71,52,38,55,45,36,98,80,48,30.32,30.12,9,0,9,0.01
2013-10-9,73,51,34,55,44,32,97,78,39,30.34,30.24,10,0,10,0.01
2013-10-10,76,56,43,55,48,41,96,75,42,30.24,30.08,7,0,7,0.00
2013-10-11,60,56,52,59,54,48,96,92,83,30.09,30.04,7,0,7,0.01
2013-10-12,75,62,52,67,58,51,98,89,72,30.14,30.05,6,0,6,0.28
2013-10-13,73,63,56,64,59,53,96,87,71,30.24,30.13,7,0,7,0.00
2013-10-14,63,61,59,60,58,57,96,92,88,30.26,30.21,4,0,4,0.01
2013-10-15,72,61,52,64,57,50,98,88,71,30.21,29.96,6,0,6,0.00
2013-10-16,63,58,52,62,57,50,98,96,92,29.98,29.86,9,0,9,0.30
2013-10-17,62,55,50,61,54,48,97,95,93,29.90,29.67,11,0,11,0.57
2013-10-18,65,52,40,50,45,37,96,80,50,30.03,29.90,11,0,11,0.01
2013-10-19,54,43,33,49,40,31,97,90,82,29.98,29.76,14,0,14,0.03
2013-10-20,62,46,36,46,39,34,97,80,50,30.07,29.97,13,0,13,0.01
2013-10-21,70,48,32,48,38,30,97,74,35,30.08,29.86,11,0,11,0.00
2013-10-22,56,47,39,48,39,33,94,77,45,29.98,29.84,13,0,13,0.14
2013-10-23,43,40,34,41,38,32,93,91,88,29.96,29.76,9,0,9,0.10
2013-10-24,50,39,30,38,33,26,95,82,54,30.18,29.94,15,0,15,0.01
2013-10-25,50,38,28,41,31,25,96,78,54,30.37,30.18,11,0,11,0.02
2013-10-26,52,39,28,34,30,26,95,72,43,30.29,29.92,17,1,17,0.00
2013-10-27,57,42,28,41,32,25,95,71,43,30.13,30.00,12,0,12,0.00
2013-10-28,64,41,26,45,33,24,96,76,42,30.31,30.12,6,0,6,0.00
2013-10-29,64,44,29,46,37,27,96,78,44,30.40,30.28,5,0,5,0.00
2013-10-30,64,50,40,55,45,37,95,84,67,30.28,30.10,5,0,5,0.00
2013-10-31,68,61,52,60,57,51,97,87,68,30.10,29.46,14,1,14,0.14
2013-11-1,70,58,46,61,50,42,93,75,53,29.69,29.33,24,1,24,0.16
2013-11-2,52,48,44,46,44,41,93,87,73,29.97,29.65,12,0,12,0.06
2013-11-3,53,41,27,42,35,24,94,80,51,30.47,29.97,13,0,13,0.00
2013-11-4,49,35,21,32,27,19,95,75,44,30.57,30.45,9,0,9,0.01
2013-11-5,62,45,33,41,35,30,92,71,39,30.54,30.34,9,0,9,0.00
2013-11-6,76,53,30,57,44,27,97,74,47,30.35,29.93,15,1,15,0.05
2013-11-7,60,46,38,56,41,28,95,82,60,30.14,29.86,15,1,15,0.52
2013-11-8,46,36,25,32,28,22,88,74,52,30.32,30.10,11,0,11,0.00
2013-11-9,59,40,23,37,27,20,95,66,31,30.32,29.99,17,1,17,0.01
2013-11-10,52,44,32,39,33,26,86,66,49,30.29,29.99,19,1,19,0.00
2013-11-11,49,41,26,40,32,23,89,70,46,30.30,30.06,16,1,16,0.03
2013-11-12,37,31,26,34,27,22,94,85,64,30.51,30.12,17,1,17,0.17
2013-11-13,37,27,22,27,23,19,91,83,63,30.58,30.41,11,0,11,0.01
2013-11-14,53,34,20,28,23,16,92,69,34,30.41,30.20,14,1,14,0.00
2013-11-15,58,41,24,40,29,21,95,67,29,30.26,30.15,14,0,14,0.00
2013-11-16,62,48,31,51,42,28,95,79,65,30.25,30.04,11,0,11,0.00
2013-11-17,61,55,42,60,53,39,97,94,90,30.04,29.52,15,1,15,0.51
2013-11-18,56,48,39,54,36,28,92,63,48,30.07,29.61,19,2,19,0.08
2013-11-19,39,34,24,29,26,20,85,72,65,30.43,30.06,18,1,18,0.00
2013-11-20,52,33,19,31,20,16,94,66,26,30.51,30.38,8,0,12,0.00
2013-11-21,60,41,24,43,33,20,93,75,47,30.47,30.24,6,0,6,0.00
2013-11-22,54,49,37,53,47,34,97,93,82,30.25,30.05,20,1,20,0.22
2013-11-23,40,32,21,34,26,14,89,79,58,30.38,30.16,23,2,23,0.00
2013-11-24,27,20,12,16,13,8,83,74,59,30.59,30.38,17,1,17,0.00
2013-11-25,38,25,10,23,13,7,91,64,35,30.56,30.27,12,0,12,0.01
2013-11-26,37,33,31,34,31,24,95,92,61,30.28,29.75,11,0,11,0.71
2013-11-27,33,29,23,32,26,18,96,89,78,30.17,29.74,23,1,23,0.01
2013-11-28,31,25,13,23,19,9,91,78,66,30.47,30.17,11,0,11,0.00
2013-11-29,40,28,18,29,22,15,91,78,53,30.68,30.46,6,0,6,0.12
2013-11-30,41,26,15,30,21,12,95,81,60,30.66,30.27,8,0,8,0.04
2013-12-1,45,34,22,37,29,19,96,83,62,30.27,30.00,7,0,7,0.03
2013-12-2,54,40,33,41,35,31,94,83,61,30.00,29.83,6,0,6,0.00
2013-12-3,56,43,36,46,39,34,96,86,65,29.92,29.86,4,0,4,0.02
2013-12-4,60,45,30,51,41,28,97,86,70,30.01,29.89,3,0,3,0.00
2013-12-5,62,52,39,58,50,37,97,94,81,30.04,29.86,14,0,14,0.12
2013-12-6,42,34,29,40,33,28,96,95,94,30.31,30.03,11,0,11,0.81
2013-12-7,34,27,20,28,24,16,95,87,72,30.62,30.29,9,0,9,0.22
2013-12-8,32,24,17,30,22,14,94,89,84,30.62,30.11,5,0,10,0.09
2013-12-9,38,34,31,37,32,26,97,92,83,30.17,30.00,11,1,11,0.01
2013-12-10,31,27,22,26,21,14,92,77,53,30.31,30.06,16,1,16,0.04
2013-12-11,31,24,15,23,17,12,89,74,59,30.41,30.27,14,1,14,0.00
2013-12-12,25,20,12,15,10,6,83,65,51,30.53,30.31,15,1,15,0.00
2013-12-13,38,27,20,23,17,9,85,65,52,30.31,30.23,12,1,12,0.00
2013-12-14,36,32,26,34,29,23,96,91,85,30.28,29.68,6,0,6,0.34
2013-12-15,39,30,24,38,27,16,97,88,72,30.06,29.65,17,2,17,0.00
2013-12-16,27,24,21,23,19,16,88,81,73,30.21,30.06,9,0,9,0.02
2013-12-17,35,31,26,33,28,23,95,88,77,30.08,29.97,13,0,13,0.03
2013-12-18,31,26,16,25,21,13,88,82,72,30.24,30.07,12,1,12,0.00
2013-12-19,55,35,17,39,28,14,95,78,50,30.17,30.06,14,1,14,0.00
2013-12-20,57,47,31,50,42,29,94,84,56,30.06,29.90,19,1,19,0.07
2013-12-21,60,55,47,59,54,45,98,95,88,29.91,29.63,15,0,15,0.54
2013-12-22,68,59,54,62,56,49,98,90,81,29.94,29.53,18,1,18,0.13
2013-12-23,54,42,34,49,39,30,94,90,82,30.26,29.94,13,1,13,0.04
2013-12-24,27,21,14,22,13,8,88,71,58,30.57,30.33,16,1,16,0.00
2013-12-25,28,20,11,23,15,7,90,79,65,30.57,30.28,6,0,6,0.00
2013-12-26,39,31,22,30,24,17,93,77,56,30.39,30.18,16,1,16,0.03
2013-12-27,38,27,20,26,22,16,92,83,60,30.41,30.30,9,0,9,0.00
2013-12-28,54,39,28,36,29,24,88,68,46,30.31,30.08,12,1,12,0.00
2013-12-29,42,38,32,42,37,28,97,94,88,30.08,29.68,14,0,14,0.46
2013-12-30,40,28,23,39,24,17,95,85,76,30.22,29.86,15,1,15,0.00
2013-12-31,27,25,22,23,20,17,88,82,73,30.36,30.12,18,1,18,0.00
2014-1-1,41,31,25,31,25,20,88,80,64,30.37,30.08,5,0,5,0.00
2014-1-2,31,26,12,29,23,9,91,88,83,30.09,29.70,14,1,14,0.11